sensor_id;sensor_type;location;lat;lon;timestamp;temperature;humidity
3053;DHT22;1536;51.098;6.414;2023-02-28T00:00:08;4.30;97.00
3053;DHT22;1536;51.098;6.414;2023-02-28T00:02:36;4.20;97.00
3053;DHT22;1536;51.098;6.414;2023-02-28T00:05:03;4.20;97.00
3053;DHT22;1536;51.098;6.414;2023-02-28T00:07:31;4.20;97.00
3053;DHT22;1536;51.098;6.414;2023-02-28T00:09:58;4.20;97.00
3053;DHT22;1536;51.098;6.414;2023-02-28T00:12:25;4.20;97.00
3053;DHT22;1536;51.098;6.414;2023-02-28T00:14:53;4.20;97.00
3053;DHT22;1536;51.098;6.414;2023-02-28T00:17:19;4.10;97.00
3053;DHT22;1536;51.098;6.414;2023-02-28T00:19:46;4.20;97.10
3053;DHT22;1536;51.098;6.414;2023-02-28T00:22:13;4.10;97.10
3053;DHT22;1536;51.098;6.414;2023-02-28T00:24:41;4.10;97.10
3053;DHT22;1536;51.098;6.414;2023-02-28T00:27:08;4.10;97.20
3053;DHT22;1536;51.098;6.414;2023-02-28T00:29:35;4.10;97.30
3053;DHT22;1536;51.098;6.414;2023-02-28T00:32:02;4.00;97.30
3053;DHT22;1536;51.098;6.414;2023-02-28T00:34:29;4.00;97.40
3053;DHT22;1536;51.098;6.414;2023-02-28T00:36:56;4.00;97.50
3053;DHT22;1536;51.098;6.414;2023-02-28T00:39:23;4.00;97.50
3053;DHT22;1536;51.098;6.414;2023-02-28T00:41:51;4.00;97.60
3053;DHT22;1536;51.098;6.414;2023-02-28T00:44:17;3.90;97.70
3053;DHT22;1536;51.098;6.414;2023-02-28T00:46:46;3.90;98.10
3053;DHT22;1536;51.098;6.414;2023-02-28T00:49:13;3.90;97.90
3053;DHT22;1536;51.098;6.414;2023-02-28T00:51:40;3.90;97.90
3053;DHT22;1536;51.098;6.414;2023-02-28T00:54:06;3.90;97.90
3053;DHT22;1536;51.098;6.414;2023-02-28T00:56:33;3.90;98.00
3053;DHT22;1536;51.098;6.414;2023-02-28T00:59:01;3.90;98.00
3053;DHT22;1536;51.098;6.414;2023-02-28T01:01:28;3.90;98.10
3053;DHT22;1536;51.098;6.414;2023-02-28T01:03:54;3.80;98.10
3053;DHT22;1536;51.098;6.414;2023-02-28T01:06:21;3.80;98.10
3053;DHT22;1536;51.098;6.414;2023-02-28T01:08:48;3.80;98.10
3053;DHT22;1536;51.098;6.414;2023-02-28T01:11:17;3.80;98.20
3053;DHT22;1536;51.098;6.414;2023-02-28T01:13:45;3.80;98.20
3053;DHT22;1536;51.098;6.414;2023-02-28T01:16:14;3.80;98.20
3053;DHT22;1536;51.098;6.414;2023-02-28T01:18:41;3.80;98.30
3053;DHT22;1536;51.098;6.414;2023-02-28T01:21:09;3.80;98.30
3053;DHT22;1536;51.098;6.414;2023-02-28T01:23:36;3.70;98.30
3053;DHT22;1536;51.098;6.414;2023-02-28T01:26:06;3.70;98.30
3053;DHT22;1536;51.098;6.414;2023-02-28T01:28:34;3.70;98.40
3053;DHT22;1536;51.098;6.414;2023-02-28T01:31:01;3.70;98.40
3053;DHT22;1536;51.098;6.414;2023-02-28T01:33:29;3.70;98.40
3053;DHT22;1536;51.098;6.414;2023-02-28T01:35:59;3.60;98.50
3053;DHT22;1536;51.098;6.414;2023-02-28T01:38:26;3.60;98.50
3053;DHT22;1536;51.098;6.414;2023-02-28T01:40:53;3.60;98.50
3053;DHT22;1536;51.098;6.414;2023-02-28T01:43:22;3.60;98.60
3053;DHT22;1536;51.098;6.414;2023-02-28T01:45:49;3.60;98.70
3053;DHT22;1536;51.098;6.414;2023-02-28T01:48:17;3.60;98.70
3053;DHT22;1536;51.098;6.414;2023-02-28T01:50:46;3.60;98.70
3053;DHT22;1536;51.098;6.414;2023-02-28T01:53:16;3.60;98.70
3053;DHT22;1536;51.098;6.414;2023-02-28T01:55:47;3.60;98.80
3053;DHT22;1536;51.098;6.414;2023-02-28T01:58:14;3.60;98.80
3053;DHT22;1536;51.098;6.414;2023-02-28T02:00:42;3.50;98.80
3053;DHT22;1536;51.098;6.414;2023-02-28T02:03:11;3.50;98.90
3053;DHT22;1536;51.098;6.414;2023-02-28T02:05:39;3.50;98.90
3053;DHT22;1536;51.098;6.414;2023-02-28T02:08:10;3.50;99.10
3053;DHT22;1536;51.098;6.414;2023-02-28T02:10:41;3.50;98.80
3053;DHT22;1536;51.098;6.414;2023-02-28T02:13:19;3.50;99.00
3053;DHT22;1536;51.098;6.414;2023-02-28T02:15:56;3.50;99.10
3053;DHT22;1536;51.098;6.414;2023-02-28T02:18:32;3.50;99.20
3053;DHT22;1536;51.098;6.414;2023-02-28T02:21:31;3.50;99.30
3053;DHT22;1536;51.098;6.414;2023-02-28T02:24:28;3.60;99.50
3053;DHT22;1536;51.098;6.414;2023-02-28T02:27:24;3.50;99.40
3053;DHT22;1536;51.098;6.414;2023-02-28T02:30:18;3.50;99.30
3053;DHT22;1536;51.098;6.414;2023-02-28T02:33:06;3.50;99.40
3053;DHT22;1536;51.098;6.414;2023-02-28T02:35:41;3.40;99.50
3053;DHT22;1536;51.098;6.414;2023-02-28T02:38:12;3.40;99.70
3053;DHT22;1536;51.098;6.414;2023-02-28T02:40:49;3.40;99.90
3053;DHT22;1536;51.098;6.414;2023-02-28T02:43:22;3.40;99.90
3053;DHT22;1536;51.098;6.414;2023-02-28T02:45:53;3.40;99.90
3053;DHT22;1536;51.098;6.414;2023-02-28T02:48:25;3.40;99.90
3053;DHT22;1536;51.098;6.414;2023-02-28T02:50:55;3.40;99.90
3053;DHT22;1536;51.098;6.414;2023-02-28T02:53:28;3.40;99.90
3053;DHT22;1536;51.098;6.414;2023-02-28T02:55:58;3.40;99.90
3053;DHT22;1536;51.098;6.414;2023-02-28T02:58:31;3.40;99.90
3053;DHT22;1536;51.098;6.414;2023-02-28T03:01:00;3.30;99.90
3053;DHT22;1536;51.098;6.414;2023-02-28T03:03:29;3.30;99.90
3053;DHT22;1536;51.098;6.414;2023-02-28T03:06:00;3.30;99.90
3053;DHT22;1536;51.098;6.414;2023-02-28T03:08:27;3.30;99.90
3053;DHT22;1536;51.098;6.414;2023-02-28T03:10:57;3.20;99.90
3053;DHT22;1536;51.098;6.414;2023-02-28T03:13:40;3.20;99.90
3053;DHT22;1536;51.098;6.414;2023-02-28T03:16:22;3.20;99.90
3053;DHT22;1536;51.098;6.414;2023-02-28T03:18:54;3.20;99.90
3053;DHT22;1536;51.098;6.414;2023-02-28T03:21:29;3.20;99.90
3053;DHT22;1536;51.098;6.414;2023-02-28T03:24:04;3.10;99.90
3053;DHT22;1536;51.098;6.414;2023-02-28T03:26:35;3.10;99.90
3053;DHT22;1536;51.098;6.414;2023-02-28T03:29:05;3.10;99.90
3053;DHT22;1536;51.098;6.414;2023-02-28T03:31:38;3.10;99.90
3053;DHT22;1536;51.098;6.414;2023-02-28T03:34:09;3.00;99.90
3053;DHT22;1536;51.098;6.414;2023-02-28T03:36:41;3.00;99.90
3053;DHT22;1536;51.098;6.414;2023-02-28T03:39:14;3.00;99.90
3053;DHT22;1536;51.098;6.414;2023-02-28T03:41:44;3.00;99.90
3053;DHT22;1536;51.098;6.414;2023-02-28T03:44:16;3.00;99.90
3053;DHT22;1536;51.098;6.414;2023-02-28T03:46:52;2.90;99.90
3053;DHT22;1536;51.098;6.414;2023-02-28T03:49:21;2.90;99.90
3053;DHT22;1536;51.098;6.414;2023-02-28T03:51:51;2.90;99.90
3053;DHT22;1536;51.098;6.414;2023-02-28T03:54:21;2.80;99.90
3053;DHT22;1536;51.098;6.414;2023-02-28T03:56:55;2.80;99.90
3053;DHT22;1536;51.098;6.414;2023-02-28T03:59:27;2.70;99.90
3053;DHT22;1536;51.098;6.414;2023-02-28T04:01:55;2.80;99.90
3053;DHT22;1536;51.098;6.414;2023-02-28T04:04:24;2.80;99.90
3053;DHT22;1536;51.098;6.414;2023-02-28T04:06:53;2.80;99.90
3053;DHT22;1536;51.098;6.414;2023-02-28T04:09:26;2.80;99.90
3053;DHT22;1536;51.098;6.414;2023-02-28T04:11:53;2.80;99.90
3053;DHT22;1536;51.098;6.414;2023-02-28T04:14:21;2.80;99.90
3053;DHT22;1536;51.098;6.414;2023-02-28T04:16:48;2.80;99.90
3053;DHT22;1536;51.098;6.414;2023-02-28T04:19:16;2.80;99.90
3053;DHT22;1536;51.098;6.414;2023-02-28T04:21:44;2.80;99.90
3053;DHT22;1536;51.098;6.414;2023-02-28T04:24:14;2.80;99.90
3053;DHT22;1536;51.098;6.414;2023-02-28T04:26:43;2.80;99.90
3053;DHT22;1536;51.098;6.414;2023-02-28T04:29:12;2.80;99.90
3053;DHT22;1536;51.098;6.414;2023-02-28T04:31:39;2.80;99.90
3053;DHT22;1536;51.098;6.414;2023-02-28T04:34:06;2.80;99.90
3053;DHT22;1536;51.098;6.414;2023-02-28T04:36:33;2.80;99.90
3053;DHT22;1536;51.098;6.414;2023-02-28T04:39:00;2.80;99.90
3053;DHT22;1536;51.098;6.414;2023-02-28T04:41:28;2.80;99.90
3053;DHT22;1536;51.098;6.414;2023-02-28T04:43:54;2.80;99.90
3053;DHT22;1536;51.098;6.414;2023-02-28T04:46:22;2.90;99.90
3053;DHT22;1536;51.098;6.414;2023-02-28T04:48:49;2.90;99.90
3053;DHT22;1536;51.098;6.414;2023-02-28T04:51:17;2.90;99.90
3053;DHT22;1536;51.098;6.414;2023-02-28T04:53:45;2.90;99.90
3053;DHT22;1536;51.098;6.414;2023-02-28T04:56:14;2.90;99.90
3053;DHT22;1536;51.098;6.414;2023-02-28T04:58:42;2.90;99.90
3053;DHT22;1536;51.098;6.414;2023-02-28T05:01:17;2.90;99.90
3053;DHT22;1536;51.098;6.414;2023-02-28T05:03:45;2.90;99.90
3053;DHT22;1536;51.098;6.414;2023-02-28T05:06:12;2.90;99.90
3053;DHT22;1536;51.098;6.414;2023-02-28T05:08:39;2.90;99.90
3053;DHT22;1536;51.098;6.414;2023-02-28T05:11:08;2.90;99.90
3053;DHT22;1536;51.098;6.414;2023-02-28T05:13:39;2.90;99.90
3053;DHT22;1536;51.098;6.414;2023-02-28T05:16:07;2.90;99.90
3053;DHT22;1536;51.098;6.414;2023-02-28T05:18:34;2.90;99.90
3053;DHT22;1536;51.098;6.414;2023-02-28T05:21:00;2.90;99.90
3053;DHT22;1536;51.098;6.414;2023-02-28T05:23:27;2.90;99.90
3053;DHT22;1536;51.098;6.414;2023-02-28T05:25:54;2.90;99.90
3053;DHT22;1536;51.098;6.414;2023-02-28T05:28:21;2.90;99.90
3053;DHT22;1536;51.098;6.414;2023-02-28T05:30:48;2.90;99.90
3053;DHT22;1536;51.098;6.414;2023-02-28T05:33:16;2.90;99.90
3053;DHT22;1536;51.098;6.414;2023-02-28T05:35:43;2.90;99.90
3053;DHT22;1536;51.098;6.414;2023-02-28T05:38:09;2.90;99.90
3053;DHT22;1536;51.098;6.414;2023-02-28T05:40:38;2.90;99.90
3053;DHT22;1536;51.098;6.414;2023-02-28T05:43:05;2.80;99.90
3053;DHT22;1536;51.098;6.414;2023-02-28T05:45:31;2.80;99.90
3053;DHT22;1536;51.098;6.414;2023-02-28T05:47:58;2.80;99.90
3053;DHT22;1536;51.098;6.414;2023-02-28T05:50:26;2.80;99.90
3053;DHT22;1536;51.098;6.414;2023-02-28T05:52:53;2.80;99.90
3053;DHT22;1536;51.098;6.414;2023-02-28T05:55:19;2.80;99.90
3053;DHT22;1536;51.098;6.414;2023-02-28T05:57:46;2.70;99.90
3053;DHT22;1536;51.098;6.414;2023-02-28T06:00:13;2.70;99.90
3053;DHT22;1536;51.098;6.414;2023-02-28T06:02:43;2.70;99.90
3053;DHT22;1536;51.098;6.414;2023-02-28T06:05:13;2.60;99.90
3053;DHT22;1536;51.098;6.414;2023-02-28T06:07:42;2.60;99.90
3053;DHT22;1536;51.098;6.414;2023-02-28T06:10:10;2.50;99.90
3053;DHT22;1536;51.098;6.414;2023-02-28T06:12:37;2.50;99.90
3053;DHT22;1536;51.098;6.414;2023-02-28T06:15:04;2.50;99.90
3053;DHT22;1536;51.098;6.414;2023-02-28T06:17:31;2.50;99.90
3053;DHT22;1536;51.098;6.414;2023-02-28T06:19:58;2.50;99.90
3053;DHT22;1536;51.098;6.414;2023-02-28T06:22:25;2.40;99.90
3053;DHT22;1536;51.098;6.414;2023-02-28T06:24:53;2.40;99.90
3053;DHT22;1536;51.098;6.414;2023-02-28T06:27:20;2.40;99.90
3053;DHT22;1536;51.098;6.414;2023-02-28T06:29:47;2.40;99.90
3053;DHT22;1536;51.098;6.414;2023-02-28T06:32:14;2.40;99.90
3053;DHT22;1536;51.098;6.414;2023-02-28T06:34:40;2.40;99.90
3053;DHT22;1536;51.098;6.414;2023-02-28T06:37:07;2.40;99.90
3053;DHT22;1536;51.098;6.414;2023-02-28T06:39:34;2.50;99.90
3053;DHT22;1536;51.098;6.414;2023-02-28T06:42:02;2.40;99.90
3053;DHT22;1536;51.098;6.414;2023-02-28T06:44:29;2.40;99.90
3053;DHT22;1536;51.098;6.414;2023-02-28T06:47:00;2.50;99.90
3053;DHT22;1536;51.098;6.414;2023-02-28T06:49:28;2.50;99.90
3053;DHT22;1536;51.098;6.414;2023-02-28T06:51:55;2.50;99.90
3053;DHT22;1536;51.098;6.414;2023-02-28T06:54:22;2.50;99.90
3053;DHT22;1536;51.098;6.414;2023-02-28T06:56:49;2.50;99.90
3053;DHT22;1536;51.098;6.414;2023-02-28T06:59:17;2.50;99.90
3053;DHT22;1536;51.098;6.414;2023-02-28T07:01:44;2.60;99.90
3053;DHT22;1536;51.098;6.414;2023-02-28T07:04:10;2.60;99.90
3053;DHT22;1536;51.098;6.414;2023-02-28T07:06:38;2.60;99.90
3053;DHT22;1536;51.098;6.414;2023-02-28T07:09:05;2.60;99.90
3053;DHT22;1536;51.098;6.414;2023-02-28T07:11:32;2.60;99.90
3053;DHT22;1536;51.098;6.414;2023-02-28T07:13:59;2.70;99.90
3053;DHT22;1536;51.098;6.414;2023-02-28T07:16:27;2.70;99.90
3053;DHT22;1536;51.098;6.414;2023-02-28T07:18:54;2.70;99.90
3053;DHT22;1536;51.098;6.414;2023-02-28T07:21:21;2.70;99.90
3053;DHT22;1536;51.098;6.414;2023-02-28T07:23:48;2.70;99.90
3053;DHT22;1536;51.098;6.414;2023-02-28T07:26:16;2.80;99.90
3053;DHT22;1536;51.098;6.414;2023-02-28T07:28:45;2.80;99.90
3053;DHT22;1536;51.098;6.414;2023-02-28T07:31:12;2.80;99.80
3053;DHT22;1536;51.098;6.414;2023-02-28T07:33:42;2.80;99.80
3053;DHT22;1536;51.098;6.414;2023-02-28T07:36:11;2.90;99.70
3053;DHT22;1536;51.098;6.414;2023-02-28T07:38:41;2.90;99.60
3053;DHT22;1536;51.098;6.414;2023-02-28T07:41:08;2.90;99.40
3053;DHT22;1536;51.098;6.414;2023-02-28T07:43:35;2.90;99.40
3053;DHT22;1536;51.098;6.414;2023-02-28T07:46:03;2.90;99.10
3053;DHT22;1536;51.098;6.414;2023-02-28T07:48:29;2.90;99.00
3053;DHT22;1536;51.098;6.414;2023-02-28T07:50:59;2.90;99.00
3053;DHT22;1536;51.098;6.414;2023-02-28T07:53:26;3.00;99.10
3053;DHT22;1536;51.098;6.414;2023-02-28T07:55:55;3.00;98.90
3053;DHT22;1536;51.098;6.414;2023-02-28T07:58:22;3.00;99.00
3053;DHT22;1536;51.098;6.414;2023-02-28T08:00:49;3.10;98.90
3053;DHT22;1536;51.098;6.414;2023-02-28T08:03:16;3.10;98.80
3053;DHT22;1536;51.098;6.414;2023-02-28T08:05:43;3.10;98.70
3053;DHT22;1536;51.098;6.414;2023-02-28T08:08:11;3.20;98.40
3053;DHT22;1536;51.098;6.414;2023-02-28T08:10:38;3.20;98.00
3053;DHT22;1536;51.098;6.414;2023-02-28T08:13:04;3.20;98.10
3053;DHT22;1536;51.098;6.414;2023-02-28T08:15:31;3.20;98.10
3053;DHT22;1536;51.098;6.414;2023-02-28T08:17:58;3.30;98.00
3053;DHT22;1536;51.098;6.414;2023-02-28T08:20:25;3.30;97.80
3053;DHT22;1536;51.098;6.414;2023-02-28T08:22:53;3.40;97.60
3053;DHT22;1536;51.098;6.414;2023-02-28T08:25:21;3.40;97.30
3053;DHT22;1536;51.098;6.414;2023-02-28T08:27:50;3.40;96.80
3053;DHT22;1536;51.098;6.414;2023-02-28T08:30:17;3.40;96.70
3053;DHT22;1536;51.098;6.414;2023-02-28T08:32:44;3.50;96.40
3053;DHT22;1536;51.098;6.414;2023-02-28T08:35:10;3.50;96.20
3053;DHT22;1536;51.098;6.414;2023-02-28T08:37:37;3.50;96.30
3053;DHT22;1536;51.098;6.414;2023-02-28T08:40:05;3.60;96.10
3053;DHT22;1536;51.098;6.414;2023-02-28T08:42:33;3.60;95.90
3053;DHT22;1536;51.098;6.414;2023-02-28T08:45:00;3.70;95.70
3053;DHT22;1536;51.098;6.414;2023-02-28T08:47:26;3.80;95.50
3053;DHT22;1536;51.098;6.414;2023-02-28T08:49:53;3.90;95.30
3053;DHT22;1536;51.098;6.414;2023-02-28T08:52:20;3.90;95.30
3053;DHT22;1536;51.098;6.414;2023-02-28T08:54:47;4.00;95.10
3053;DHT22;1536;51.098;6.414;2023-02-28T08:57:13;4.00;95.00
3053;DHT22;1536;51.098;6.414;2023-02-28T08:59:41;4.10;94.80
3053;DHT22;1536;51.098;6.414;2023-02-28T09:02:10;4.20;93.60
3053;DHT22;1536;51.098;6.414;2023-02-28T09:04:38;4.20;92.70
3053;DHT22;1536;51.098;6.414;2023-02-28T09:07:05;4.30;92.10
3053;DHT22;1536;51.098;6.414;2023-02-28T09:09:32;4.30;91.00
3053;DHT22;1536;51.098;6.414;2023-02-28T09:11:59;4.40;90.50
3053;DHT22;1536;51.098;6.414;2023-02-28T09:14:25;4.50;90.30
3053;DHT22;1536;51.098;6.414;2023-02-28T09:16:53;4.50;90.10
3053;DHT22;1536;51.098;6.414;2023-02-28T09:19:21;4.60;90.10
3053;DHT22;1536;51.098;6.414;2023-02-28T09:21:47;4.60;88.60
3053;DHT22;1536;51.098;6.414;2023-02-28T09:24:14;4.70;88.00
3053;DHT22;1536;51.098;6.414;2023-02-28T09:26:41;4.70;86.50
3053;DHT22;1536;51.098;6.414;2023-02-28T09:29:07;4.80;85.20
3053;DHT22;1536;51.098;6.414;2023-02-28T09:31:34;4.80;83.40
3053;DHT22;1536;51.098;6.414;2023-02-28T09:34:04;4.80;83.00
3053;DHT22;1536;51.098;6.414;2023-02-28T09:36:31;4.90;84.20
3053;DHT22;1536;51.098;6.414;2023-02-28T09:38:58;4.90;81.50
3053;DHT22;1536;51.098;6.414;2023-02-28T09:41:26;5.00;80.40
3053;DHT22;1536;51.098;6.414;2023-02-28T09:43:58;5.00;78.10
3053;DHT22;1536;51.098;6.414;2023-02-28T09:46:30;5.00;78.10
3053;DHT22;1536;51.098;6.414;2023-02-28T09:49:03;5.00;76.60
3053;DHT22;1536;51.098;6.414;2023-02-28T09:51:39;5.00;76.70
3053;DHT22;1536;51.098;6.414;2023-02-28T09:54:13;5.00;75.10
3053;DHT22;1536;51.098;6.414;2023-02-28T09:56:45;5.10;75.20
3053;DHT22;1536;51.098;6.414;2023-02-28T09:59:28;5.20;75.70
3053;DHT22;1536;51.098;6.414;2023-02-28T10:02:01;5.20;75.20
3053;DHT22;1536;51.098;6.414;2023-02-28T10:04:42;5.30;75.70
3053;DHT22;1536;51.098;6.414;2023-02-28T10:07:23;5.30;75.30
3053;DHT22;1536;51.098;6.414;2023-02-28T10:09:54;5.30;74.50
3053;DHT22;1536;51.098;6.414;2023-02-28T10:12:21;5.40;74.50
3053;DHT22;1536;51.098;6.414;2023-02-28T10:14:52;5.40;73.90
3053;DHT22;1536;51.098;6.414;2023-02-28T10:17:22;5.40;72.90
3053;DHT22;1536;51.098;6.414;2023-02-28T10:19:58;5.50;72.80
3053;DHT22;1536;51.098;6.414;2023-02-28T10:22:29;5.50;71.50
3053;DHT22;1536;51.098;6.414;2023-02-28T10:24:58;5.60;72.80
3053;DHT22;1536;51.098;6.414;2023-02-28T10:27:30;5.60;71.40
3053;DHT22;1536;51.098;6.414;2023-02-28T10:29:58;5.60;72.00
3053;DHT22;1536;51.098;6.414;2023-02-28T10:32:27;5.70;73.00
3053;DHT22;1536;51.098;6.414;2023-02-28T10:34:59;5.70;72.40
3053;DHT22;1536;51.098;6.414;2023-02-28T10:37:26;5.80;73.10
3053;DHT22;1536;51.098;6.414;2023-02-28T10:39:53;5.80;73.10
3053;DHT22;1536;51.098;6.414;2023-02-28T10:42:23;5.90;72.60
3053;DHT22;1536;51.098;6.414;2023-02-28T10:45:06;5.90;72.20
3053;DHT22;1536;51.098;6.414;2023-02-28T10:47:34;6.00;72.20
3053;DHT22;1536;51.098;6.414;2023-02-28T10:50:04;6.00;72.30
3053;DHT22;1536;51.098;6.414;2023-02-28T10:52:33;6.00;71.70
3053;DHT22;1536;51.098;6.414;2023-02-28T10:55:20;6.10;72.00
3053;DHT22;1536;51.098;6.414;2023-02-28T10:57:47;6.10;71.80
3053;DHT22;1536;51.098;6.414;2023-02-28T11:00:16;6.10;72.30
3053;DHT22;1536;51.098;6.414;2023-02-28T11:02:44;6.10;72.40
3053;DHT22;1536;51.098;6.414;2023-02-28T11:05:25;6.20;72.80
3053;DHT22;1536;51.098;6.414;2023-02-28T11:07:52;6.20;77.40
3053;DHT22;1536;51.098;6.414;2023-02-28T11:10:22;6.30;75.30
3053;DHT22;1536;51.098;6.414;2023-02-28T11:12:55;6.30;72.50
3053;DHT22;1536;51.098;6.414;2023-02-28T11:15:25;6.30;71.70
3053;DHT22;1536;51.098;6.414;2023-02-28T11:17:57;6.30;72.00
3053;DHT22;1536;51.098;6.414;2023-02-28T11:20:28;6.30;71.80
3053;DHT22;1536;51.098;6.414;2023-02-28T11:22:57;6.30;71.90
3053;DHT22;1536;51.098;6.414;2023-02-28T11:25:28;6.30;70.90
3053;DHT22;1536;51.098;6.414;2023-02-28T11:28:00;6.30;70.30
3053;DHT22;1536;51.098;6.414;2023-02-28T11:30:35;6.20;70.70
3053;DHT22;1536;51.098;6.414;2023-02-28T11:33:26;6.20;70.10
3053;DHT22;1536;51.098;6.414;2023-02-28T11:35:57;6.20;70.90
3053;DHT22;1536;51.098;6.414;2023-02-28T11:38:26;6.30;71.00
3053;DHT22;1536;51.098;6.414;2023-02-28T11:41:05;6.30;70.20
3053;DHT22;1536;51.098;6.414;2023-02-28T11:43:46;6.20;70.50
3053;DHT22;1536;51.098;6.414;2023-02-28T11:46:25;6.30;71.70
3053;DHT22;1536;51.098;6.414;2023-02-28T11:49:00;6.30;71.90
3053;DHT22;1536;51.098;6.414;2023-02-28T11:51:33;6.30;70.70
3053;DHT22;1536;51.098;6.414;2023-02-28T11:54:23;6.30;70.60
3053;DHT22;1536;51.098;6.414;2023-02-28T11:56:57;6.30;69.50
3053;DHT22;1536;51.098;6.414;2023-02-28T11:59:44;6.30;69.60
3053;DHT22;1536;51.098;6.414;2023-02-28T12:02:25;6.30;70.00
3053;DHT22;1536;51.098;6.414;2023-02-28T12:05:05;6.30;71.00
3053;DHT22;1536;51.098;6.414;2023-02-28T12:07:47;6.30;70.60
3053;DHT22;1536;51.098;6.414;2023-02-28T12:10:21;6.30;69.90
3053;DHT22;1536;51.098;6.414;2023-02-28T12:13:01;6.40;70.70
3053;DHT22;1536;51.098;6.414;2023-02-28T12:16:10;6.40;71.60
3053;DHT22;1536;51.098;6.414;2023-02-28T12:18:59;6.50;71.40
3053;DHT22;1536;51.098;6.414;2023-02-28T12:21:35;6.50;70.60
3053;DHT22;1536;51.098;6.414;2023-02-28T12:24:22;6.60;70.70
3053;DHT22;1536;51.098;6.414;2023-02-28T12:26:51;6.60;71.10
3053;DHT22;1536;51.098;6.414;2023-02-28T12:29:23;6.60;71.30
3053;DHT22;1536;51.098;6.414;2023-02-28T12:31:53;6.60;70.10
3053;DHT22;1536;51.098;6.414;2023-02-28T12:34:27;6.60;69.60
3053;DHT22;1536;51.098;6.414;2023-02-28T12:36:55;6.60;69.90
3053;DHT22;1536;51.098;6.414;2023-02-28T12:39:26;6.60;70.60
3053;DHT22;1536;51.098;6.414;2023-02-28T12:41:59;6.70;70.80
3053;DHT22;1536;51.098;6.414;2023-02-28T12:44:32;6.70;71.80
3053;DHT22;1536;51.098;6.414;2023-02-28T12:47:02;6.80;71.30
3053;DHT22;1536;51.098;6.414;2023-02-28T12:49:33;6.80;70.90
3053;DHT22;1536;51.098;6.414;2023-02-28T12:52:02;6.80;71.70
3053;DHT22;1536;51.098;6.414;2023-02-28T12:54:37;6.80;70.20
3053;DHT22;1536;51.098;6.414;2023-02-28T12:57:10;6.80;70.10
3053;DHT22;1536;51.098;6.414;2023-02-28T12:59:41;6.90;69.90
3053;DHT22;1536;51.098;6.414;2023-02-28T13:08:47;7.00;70.80
3053;DHT22;1536;51.098;6.414;2023-02-28T13:11:27;7.00;70.10
3053;DHT22;1536;51.098;6.414;2023-02-28T13:13:59;7.00;70.10
3053;DHT22;1536;51.098;6.414;2023-02-28T13:16:26;7.00;70.00
3053;DHT22;1536;51.098;6.414;2023-02-28T13:19:08;7.00;69.50
3053;DHT22;1536;51.098;6.414;2023-02-28T13:21:42;7.00;69.50
3053;DHT22;1536;51.098;6.414;2023-02-28T13:24:10;7.00;69.60
3053;DHT22;1536;51.098;6.414;2023-02-28T13:29:53;7.10;70.10
3053;DHT22;1536;51.098;6.414;2023-02-28T13:32:34;7.10;70.30
3053;DHT22;1536;51.098;6.414;2023-02-28T13:35:35;7.10;70.50
3053;DHT22;1536;51.098;6.414;2023-02-28T13:44:03;7.10;70.30
3053;DHT22;1536;51.098;6.414;2023-02-28T13:46:32;7.20;71.20
3053;DHT22;1536;51.098;6.414;2023-02-28T13:49:18;7.20;70.60
3053;DHT22;1536;51.098;6.414;2023-02-28T13:51:46;7.20;70.60
3053;DHT22;1536;51.098;6.414;2023-02-28T13:54:27;7.20;70.80
3053;DHT22;1536;51.098;6.414;2023-02-28T13:57:06;7.20;69.30
3053;DHT22;1536;51.098;6.414;2023-02-28T13:59:42;7.10;69.00
3053;DHT22;1536;51.098;6.414;2023-02-28T14:02:35;7.10;69.60
3053;DHT22;1536;51.098;6.414;2023-02-28T14:05:06;7.20;70.40
3053;DHT22;1536;51.098;6.414;2023-02-28T14:07:43;7.20;70.30
3053;DHT22;1536;51.098;6.414;2023-02-28T14:10:22;7.20;70.80
3053;DHT22;1536;51.098;6.414;2023-02-28T14:12:57;7.30;70.80
3053;DHT22;1536;51.098;6.414;2023-02-28T14:15:44;7.30;71.10
3053;DHT22;1536;51.098;6.414;2023-02-28T14:18:23;7.40;71.00
3053;DHT22;1536;51.098;6.414;2023-02-28T14:20:56;7.40;71.90
3053;DHT22;1536;51.098;6.414;2023-02-28T14:23:38;7.40;70.60
3053;DHT22;1536;51.098;6.414;2023-02-28T14:26:16;7.40;70.70
3053;DHT22;1536;51.098;6.414;2023-02-28T14:28:56;7.50;71.20
3053;DHT22;1536;51.098;6.414;2023-02-28T14:31:34;7.50;70.70
3053;DHT22;1536;51.098;6.414;2023-02-28T14:34:17;7.50;70.10
3053;DHT22;1536;51.098;6.414;2023-02-28T14:36:48;7.50;69.70
3053;DHT22;1536;51.098;6.414;2023-02-28T14:39:19;7.50;69.80
3053;DHT22;1536;51.098;6.414;2023-02-28T14:41:46;7.50;68.70
3053;DHT22;1536;51.098;6.414;2023-02-28T14:44:16;7.50;69.10
3053;DHT22;1536;51.098;6.414;2023-02-28T14:46:45;7.50;68.80
3053;DHT22;1536;51.098;6.414;2023-02-28T14:49:18;7.50;68.70
3053;DHT22;1536;51.098;6.414;2023-02-28T14:51:45;7.40;67.40
3053;DHT22;1536;51.098;6.414;2023-02-28T14:54:15;7.40;68.10
3053;DHT22;1536;51.098;6.414;2023-02-28T14:56:42;7.40;69.30
3053;DHT22;1536;51.098;6.414;2023-02-28T14:59:25;7.40;69.60
3053;DHT22;1536;51.098;6.414;2023-02-28T15:01:52;7.50;69.30
3053;DHT22;1536;51.098;6.414;2023-02-28T15:04:34;7.50;67.80
3053;DHT22;1536;51.098;6.414;2023-02-28T15:07:08;7.50;69.10
3053;DHT22;1536;51.098;6.414;2023-02-28T15:09:35;7.60;69.90
3053;DHT22;1536;51.098;6.414;2023-02-28T15:12:01;7.60;69.40
3053;DHT22;1536;51.098;6.414;2023-02-28T15:14:28;7.60;69.50
3053;DHT22;1536;51.098;6.414;2023-02-28T15:16:57;7.60;69.10
3053;DHT22;1536;51.098;6.414;2023-02-28T15:19:27;7.70;70.20
3053;DHT22;1536;51.098;6.414;2023-02-28T15:22:00;7.70;69.80
3053;DHT22;1536;51.098;6.414;2023-02-28T15:24:35;7.70;69.40
3053;DHT22;1536;51.098;6.414;2023-02-28T15:27:06;7.80;70.00
3053;DHT22;1536;51.098;6.414;2023-02-28T15:29:41;7.80;70.90
3053;DHT22;1536;51.098;6.414;2023-02-28T15:32:23;7.80;69.90
3053;DHT22;1536;51.098;6.414;2023-02-28T15:34:50;7.80;70.20
3053;DHT22;1536;51.098;6.414;2023-02-28T15:37:39;7.90;70.70
3053;DHT22;1536;51.098;6.414;2023-02-28T15:40:13;7.80;68.80
3053;DHT22;1536;51.098;6.414;2023-02-28T15:42:41;7.80;69.80
3053;DHT22;1536;51.098;6.414;2023-02-28T15:45:34;7.80;69.90
3053;DHT22;1536;51.098;6.414;2023-02-28T15:48:04;7.80;70.00
3053;DHT22;1536;51.098;6.414;2023-02-28T15:50:30;7.80;70.80
3053;DHT22;1536;51.098;6.414;2023-02-28T15:53:00;7.70;69.70
3053;DHT22;1536;51.098;6.414;2023-02-28T15:55:29;7.70;69.50
3053;DHT22;1536;51.098;6.414;2023-02-28T15:57:59;7.60;70.10
3053;DHT22;1536;51.098;6.414;2023-02-28T16:00:28;7.60;70.10
3053;DHT22;1536;51.098;6.414;2023-02-28T16:02:55;7.60;70.20
3053;DHT22;1536;51.098;6.414;2023-02-28T16:05:24;7.50;70.20
3053;DHT22;1536;51.098;6.414;2023-02-28T16:07:56;7.50;71.20
3053;DHT22;1536;51.098;6.414;2023-02-28T16:10:26;7.50;71.30
3053;DHT22;1536;51.098;6.414;2023-02-28T16:12:54;7.50;70.60
3053;DHT22;1536;51.098;6.414;2023-02-28T16:15:23;7.50;69.90
3053;DHT22;1536;51.098;6.414;2023-02-28T16:17:51;7.40;70.30
3053;DHT22;1536;51.098;6.414;2023-02-28T16:20:20;7.40;70.60
3053;DHT22;1536;51.098;6.414;2023-02-28T16:22:47;7.30;70.00
3053;DHT22;1536;51.098;6.414;2023-02-28T16:25:15;7.30;70.90
3053;DHT22;1536;51.098;6.414;2023-02-28T16:27:44;7.20;71.00
3053;DHT22;1536;51.098;6.414;2023-02-28T16:30:17;7.20;71.50
3053;DHT22;1536;51.098;6.414;2023-02-28T16:32:45;7.20;71.00
3053;DHT22;1536;51.098;6.414;2023-02-28T16:35:12;7.10;71.70
3053;DHT22;1536;51.098;6.414;2023-02-28T16:37:39;7.10;72.50
3053;DHT22;1536;51.098;6.414;2023-02-28T16:40:07;7.00;72.60
3053;DHT22;1536;51.098;6.414;2023-02-28T16:42:37;7.00;73.20
3053;DHT22;1536;51.098;6.414;2023-02-28T16:45:14;7.00;73.90
3053;DHT22;1536;51.098;6.414;2023-02-28T16:47:41;7.00;74.00
3053;DHT22;1536;51.098;6.414;2023-02-28T16:50:13;7.00;74.30
3053;DHT22;1536;51.098;6.414;2023-02-28T16:52:40;7.00;74.90
3053;DHT22;1536;51.098;6.414;2023-02-28T16:55:08;7.00;75.20